sensor_id;sensor_type;location;lat;lon;timestamp;P1;durP1;ratioP1;P2;durP2;ratioP2
47309;SDS011;33046;52.270;6.832;2023-04-30T00:01:25;2.20;;;1.90;;
47309;SDS011;33046;52.270;6.832;2023-04-30T00:03:32;3.33;;;2.08;;
47309;SDS011;33046;52.270;6.832;2023-04-30T00:05:39;2.40;;;2.00;;
47309;SDS011;33046;52.270;6.832;2023-04-30T00:07:46;3.88;;;2.83;;
47309;SDS011;33046;52.270;6.832;2023-04-30T00:09:54;2.88;;;2.28;;
47309;SDS011;33046;52.270;6.832;2023-04-30T00:12:01;4.70;;;3.05;;
47309;SDS011;33046;52.270;6.832;2023-04-30T00:14:08;4.55;;;4.05;;
47309;SDS011;33046;52.270;6.832;2023-04-30T00:16:14;6.97;;;3.72;;
47309;SDS011;33046;52.270;6.832;2023-04-30T00:18:21;3.28;;;2.75;;
47309;SDS011;33046;52.270;6.832;2023-04-30T00:20:28;3.13;;;2.30;;
47309;SDS011;33046;52.270;6.832;2023-04-30T00:22:35;2.97;;;2.60;;
47309;SDS011;33046;52.270;6.832;2023-04-30T00:24:41;4.15;;;2.67;;
47309;SDS011;33046;52.270;6.832;2023-04-30T00:26:50;2.65;;;2.10;;
47309;SDS011;33046;52.270;6.832;2023-04-30T00:28:56;3.40;;;2.53;;
47309;SDS011;33046;52.270;6.832;2023-04-30T00:31:03;2.97;;;2.67;;
47309;SDS011;33046;52.270;6.832;2023-04-30T00:33:10;3.63;;;2.60;;
47309;SDS011;33046;52.270;6.832;2023-04-30T00:35:17;3.50;;;3.20;;
47309;SDS011;33046;52.270;6.832;2023-04-30T00:37:25;4.30;;;3.80;;
47309;SDS011;33046;52.270;6.832;2023-04-30T00:39:31;4.32;;;3.92;;
47309;SDS011;33046;52.270;6.832;2023-04-30T00:41:38;5.15;;;3.20;;
47309;SDS011;33046;52.270;6.832;2023-04-30T00:43:47;4.45;;;3.55;;
47309;SDS011;33046;52.270;6.832;2023-04-30T00:45:54;3.60;;;3.00;;
47309;SDS011;33046;52.270;6.832;2023-04-30T00:48:02;3.22;;;2.92;;
47309;SDS011;33046;52.270;6.832;2023-04-30T00:50:09;3.97;;;3.58;;
47309;SDS011;33046;52.270;6.832;2023-04-30T00:52:16;4.05;;;3.65;;
47309;SDS011;33046;52.270;6.832;2023-04-30T00:54:23;6.60;;;4.03;;
47309;SDS011;33046;52.270;6.832;2023-04-30T00:56:30;4.43;;;3.13;;
47309;SDS011;33046;52.270;6.832;2023-04-30T00:58:37;4.70;;;3.67;;
47309;SDS011;33046;52.270;6.832;2023-04-30T01:00:46;2.88;;;2.55;;
47309;SDS011;33046;52.270;6.832;2023-04-30T01:02:54;2.78;;;1.63;;
47309;SDS011;33046;52.270;6.832;2023-04-30T01:05:01;1.50;;;1.40;;
47309;SDS011;33046;52.270;6.832;2023-04-30T01:07:09;1.55;;;1.30;;
47309;SDS011;33046;52.270;6.832;2023-04-30T01:09:16;3.55;;;1.80;;
47309;SDS011;33046;52.270;6.832;2023-04-30T01:11:25;2.65;;;2.45;;
47309;SDS011;33046;52.270;6.832;2023-04-30T01:13:44;3.60;;;2.90;;
47309;SDS011;33046;52.270;6.832;2023-04-30T01:16:12;3.22;;;2.72;;
47309;SDS011;33046;52.270;6.832;2023-04-30T01:18:24;3.60;;;2.90;;
47309;SDS011;33046;52.270;6.832;2023-04-30T01:20:34;6.03;;;3.60;;
47309;SDS011;33046;52.270;6.832;2023-04-30T01:22:50;3.38;;;2.65;;
47309;SDS011;33046;52.270;6.832;2023-04-30T01:25:05;4.38;;;3.70;;
47309;SDS011;33046;52.270;6.832;2023-04-30T01:27:23;4.30;;;3.90;;
47309;SDS011;33046;52.270;6.832;2023-04-30T01:29:38;4.70;;;3.30;;
47309;SDS011;33046;52.270;6.832;2023-04-30T01:31:47;4.40;;;3.28;;
47309;SDS011;33046;52.270;6.832;2023-04-30T01:33:54;3.97;;;3.38;;
47309;SDS011;33046;52.270;6.832;2023-04-30T01:36:09;4.35;;;2.92;;
47309;SDS011;33046;52.270;6.832;2023-04-30T01:38:29;4.28;;;3.60;;
47309;SDS011;33046;52.270;6.832;2023-04-30T01:40:46;7.32;;;3.75;;
47309;SDS011;33046;52.270;6.832;2023-04-30T01:43:00;4.57;;;3.05;;
47309;SDS011;33046;52.270;6.832;2023-04-30T01:45:20;3.35;;;2.75;;
47309;SDS011;33046;52.270;6.832;2023-04-30T01:47:38;3.78;;;2.78;;
47309;SDS011;33046;52.270;6.832;2023-04-30T01:49:50;3.83;;;2.67;;
47309;SDS011;33046;52.270;6.832;2023-04-30T01:52:05;4.03;;;2.58;;
47309;SDS011;33046;52.270;6.832;2023-04-30T01:54:21;3.00;;;2.63;;
47309;SDS011;33046;52.270;6.832;2023-04-30T01:56:34;2.80;;;2.20;;
47309;SDS011;33046;52.270;6.832;2023-04-30T01:58:49;4.15;;;2.25;;
47309;SDS011;33046;52.270;6.832;2023-04-30T02:01:00;2.95;;;2.67;;
47309;SDS011;33046;52.270;6.832;2023-04-30T02:03:06;3.38;;;2.35;;
47309;SDS011;33046;52.270;6.832;2023-04-30T02:05:13;3.58;;;2.92;;
47309;SDS011;33046;52.270;6.832;2023-04-30T02:07:25;2.83;;;2.63;;
47309;SDS011;33046;52.270;6.832;2023-04-30T02:09:41;2.08;;;1.88;;
47309;SDS011;33046;52.270;6.832;2023-04-30T02:11:48;2.97;;;2.25;;
47309;SDS011;33046;52.270;6.832;2023-04-30T02:13:55;3.85;;;3.28;;
47309;SDS011;33046;52.270;6.832;2023-04-30T02:16:03;6.13;;;3.42;;
47309;SDS011;33046;52.270;6.832;2023-04-30T02:18:10;3.33;;;3.03;;
47309;SDS011;33046;52.270;6.832;2023-04-30T02:20:17;4.40;;;3.92;;
47309;SDS011;33046;52.270;6.832;2023-04-30T02:22:24;4.35;;;3.63;;
47309;SDS011;33046;52.270;6.832;2023-04-30T02:24:31;4.00;;;3.20;;
47309;SDS011;33046;52.270;6.832;2023-04-30T02:26:38;4.72;;;3.03;;
47309;SDS011;33046;52.270;6.832;2023-04-30T02:28:45;3.85;;;3.38;;
47309;SDS011;33046;52.270;6.832;2023-04-30T02:30:52;4.15;;;3.60;;
47309;SDS011;33046;52.270;6.832;2023-04-30T02:33:00;4.22;;;2.38;;
47309;SDS011;33046;52.270;6.832;2023-04-30T02:35:08;3.85;;;3.00;;
47309;SDS011;33046;52.270;6.832;2023-04-30T02:37:15;2.88;;;2.55;;
47309;SDS011;33046;52.270;6.832;2023-04-30T02:39:21;3.65;;;2.95;;
47309;SDS011;33046;52.270;6.832;2023-04-30T02:41:28;4.68;;;3.25;;
47309;SDS011;33046;52.270;6.832;2023-04-30T02:43:35;5.97;;;3.40;;
47309;SDS011;33046;52.270;6.832;2023-04-30T02:45:42;3.47;;;2.85;;
47309;SDS011;33046;52.270;6.832;2023-04-30T02:47:48;4.90;;;4.30;;
47309;SDS011;33046;52.270;6.832;2023-04-30T02:49:57;4.47;;;3.72;;
47309;SDS011;33046;52.270;6.832;2023-04-30T02:52:03;4.30;;;3.63;;
47309;SDS011;33046;52.270;6.832;2023-04-30T02:54:10;4.97;;;3.42;;
47309;SDS011;33046;52.270;6.832;2023-04-30T02:56:17;5.78;;;3.88;;
47309;SDS011;33046;52.270;6.832;2023-04-30T02:58:24;3.92;;;3.53;;
47309;SDS011;33046;52.270;6.832;2023-04-30T03:00:31;2.97;;;2.42;;
47309;SDS011;33046;52.270;6.832;2023-04-30T03:02:38;6.03;;;2.88;;
47309;SDS011;33046;52.270;6.832;2023-04-30T03:04:44;4.60;;;2.10;;
47309;SDS011;33046;52.270;6.832;2023-04-30T03:06:53;2.20;;;1.88;;
47309;SDS011;33046;52.270;6.832;2023-04-30T03:08:59;2.00;;;1.50;;
47309;SDS011;33046;52.270;6.832;2023-04-30T03:11:06;2.30;;;2.00;;
47309;SDS011;33046;52.270;6.832;2023-04-30T03:13:13;4.07;;;2.70;;
47309;SDS011;33046;52.270;6.832;2023-04-30T03:15:20;3.40;;;2.85;;
47309;SDS011;33046;52.270;6.832;2023-04-30T03:17:27;3.30;;;2.80;;
47309;SDS011;33046;52.270;6.832;2023-04-30T03:19:33;3.80;;;3.15;;
47309;SDS011;33046;52.270;6.832;2023-04-30T03:21:41;2.60;;;2.08;;
47309;SDS011;33046;52.270;6.832;2023-04-30T03:23:51;2.13;;;1.50;;
47309;SDS011;33046;52.270;6.832;2023-04-30T03:25:58;1.85;;;1.42;;
47309;SDS011;33046;52.270;6.832;2023-04-30T03:28:04;2.92;;;1.70;;
47309;SDS011;33046;52.270;6.832;2023-04-30T03:30:11;1.45;;;1.23;;
47309;SDS011;33046;52.270;6.832;2023-04-30T03:32:18;2.70;;;1.40;;
47309;SDS011;33046;52.270;6.832;2023-04-30T03:34:25;1.85;;;1.60;;
47309;SDS011;33046;52.270;6.832;2023-04-30T03:36:31;2.10;;;1.55;;
47309;SDS011;33046;52.270;6.832;2023-04-30T03:38:39;2.10;;;1.88;;
47309;SDS011;33046;52.270;6.832;2023-04-30T03:40:47;3.65;;;2.22;;
47309;SDS011;33046;52.270;6.832;2023-04-30T03:42:54;3.30;;;2.65;;
47309;SDS011;33046;52.270;6.832;2023-04-30T03:45:01;3.72;;;2.72;;
47309;SDS011;33046;52.270;6.832;2023-04-30T03:47:07;3.05;;;2.60;;
47309;SDS011;33046;52.270;6.832;2023-04-30T03:49:15;2.33;;;2.13;;
47309;SDS011;33046;52.270;6.832;2023-04-30T03:51:22;3.45;;;2.28;;
47309;SDS011;33046;52.270;6.832;2023-04-30T03:53:28;2.40;;;1.92;;
47309;SDS011;33046;52.270;6.832;2023-04-30T03:55:35;2.35;;;1.50;;
47309;SDS011;33046;52.270;6.832;2023-04-30T03:57:44;4.22;;;2.30;;
47309;SDS011;33046;52.270;6.832;2023-04-30T03:59:50;1.90;;;1.70;;
47309;SDS011;33046;52.270;6.832;2023-04-30T04:01:58;2.78;;;1.55;;
47309;SDS011;33046;52.270;6.832;2023-04-30T04:04:05;3.88;;;2.53;;
47309;SDS011;33046;52.270;6.832;2023-04-30T04:06:12;3.60;;;3.20;;
47309;SDS011;33046;52.270;6.832;2023-04-30T04:08:19;3.55;;;2.83;;
47309;SDS011;33046;52.270;6.832;2023-04-30T04:10:26;3.63;;;2.33;;
47309;SDS011;33046;52.270;6.832;2023-04-30T04:12:33;3.47;;;1.98;;
47309;SDS011;33046;52.270;6.832;2023-04-30T04:14:41;2.75;;;2.47;;
47309;SDS011;33046;52.270;6.832;2023-04-30T04:16:48;4.00;;;3.13;;
47309;SDS011;33046;52.270;6.832;2023-04-30T04:18:55;3.85;;;3.45;;
47309;SDS011;33046;52.270;6.832;2023-04-30T04:21:02;3.50;;;2.85;;
47309;SDS011;33046;52.270;6.832;2023-04-30T04:23:09;4.28;;;3.45;;
47309;SDS011;33046;52.270;6.832;2023-04-30T04:25:16;3.65;;;3.22;;
47309;SDS011;33046;52.270;6.832;2023-04-30T04:27:23;5.20;;;4.70;;
47309;SDS011;33046;52.270;6.832;2023-04-30T04:29:30;3.63;;;2.95;;
47309;SDS011;33046;52.270;6.832;2023-04-30T04:31:39;4.60;;;3.80;;
47309;SDS011;33046;52.270;6.832;2023-04-30T04:33:45;6.80;;;4.82;;
47309;SDS011;33046;52.270;6.832;2023-04-30T04:35:52;6.78;;;4.57;;
47309;SDS011;33046;52.270;6.832;2023-04-30T04:37:59;4.13;;;3.65;;
47309;SDS011;33046;52.270;6.832;2023-04-30T04:40:07;5.18;;;3.13;;
47309;SDS011;33046;52.270;6.832;2023-04-30T04:42:14;2.55;;;1.70;;
47309;SDS011;33046;52.270;6.832;2023-04-30T04:44:21;3.47;;;2.28;;
47309;SDS011;33046;52.270;6.832;2023-04-30T04:46:29;3.35;;;2.33;;
47309;SDS011;33046;52.270;6.832;2023-04-30T04:48:37;4.40;;;3.33;;
47309;SDS011;33046;52.270;6.832;2023-04-30T04:50:44;4.60;;;4.10;;
47309;SDS011;33046;52.270;6.832;2023-04-30T04:52:51;4.88;;;3.47;;
47309;SDS011;33046;52.270;6.832;2023-04-30T04:54:58;4.50;;;2.85;;
47309;SDS011;33046;52.270;6.832;2023-04-30T04:57:05;6.43;;;3.53;;
47309;SDS011;33046;52.270;6.832;2023-04-30T04:59:11;4.20;;;3.42;;
47309;SDS011;33046;52.270;6.832;2023-04-30T05:01:18;4.63;;;2.95;;
47309;SDS011;33046;52.270;6.832;2023-04-30T05:03:25;4.70;;;3.33;;
47309;SDS011;33046;52.270;6.832;2023-04-30T05:05:34;5.35;;;4.13;;
47309;SDS011;33046;52.270;6.832;2023-04-30T05:07:41;6.18;;;4.65;;
47309;SDS011;33046;52.270;6.832;2023-04-30T05:09:48;5.13;;;3.38;;
47309;SDS011;33046;52.270;6.832;2023-04-30T05:11:55;5.13;;;3.83;;
47309;SDS011;33046;52.270;6.832;2023-04-30T05:14:01;6.95;;;4.65;;
47309;SDS011;33046;52.270;6.832;2023-04-30T05:16:08;5.13;;;4.15;;
47309;SDS011;33046;52.270;6.832;2023-04-30T05:18:15;5.47;;;4.25;;
47309;SDS011;33046;52.270;6.832;2023-04-30T05:20:22;7.10;;;4.25;;
47309;SDS011;33046;52.270;6.832;2023-04-30T05:22:30;7.00;;;4.80;;
47309;SDS011;33046;52.270;6.832;2023-04-30T05:24:37;5.70;;;5.15;;
47309;SDS011;33046;52.270;6.832;2023-04-30T05:26:43;7.57;;;6.13;;
47309;SDS011;33046;52.270;6.832;2023-04-30T05:28:50;6.63;;;4.80;;
47309;SDS011;33046;52.270;6.832;2023-04-30T05:30:57;6.22;;;5.25;;
47309;SDS011;33046;52.270;6.832;2023-04-30T05:33:04;9.90;;;5.53;;
47309;SDS011;33046;52.270;6.832;2023-04-30T05:35:10;14.63;;;6.07;;
47309;SDS011;33046;52.270;6.832;2023-04-30T05:37:17;10.48;;;6.38;;
47309;SDS011;33046;52.270;6.832;2023-04-30T05:39:25;7.88;;;5.38;;
47309;SDS011;33046;52.270;6.832;2023-04-30T05:41:32;9.93;;;6.50;;
47309;SDS011;33046;52.270;6.832;2023-04-30T05:43:39;10.63;;;5.70;;
47309;SDS011;33046;52.270;6.832;2023-04-30T05:45:46;12.77;;;6.13;;
47309;SDS011;33046;52.270;6.832;2023-04-30T05:47:52;8.13;;;5.93;;
47309;SDS011;33046;52.270;6.832;2023-04-30T05:49:59;5.43;;;4.35;;
47309;SDS011;33046;52.270;6.832;2023-04-30T05:52:06;9.15;;;5.10;;
47309;SDS011;33046;52.270;6.832;2023-04-30T05:54:13;8.30;;;5.20;;
47309;SDS011;33046;52.270;6.832;2023-04-30T05:56:21;7.82;;;4.70;;
47309;SDS011;33046;52.270;6.832;2023-04-30T05:58:28;7.70;;;4.72;;
47309;SDS011;33046;52.270;6.832;2023-04-30T06:00:34;7.25;;;4.80;;
47309;SDS011;33046;52.270;6.832;2023-04-30T06:02:41;9.77;;;4.05;;
47309;SDS011;33046;52.270;6.832;2023-04-30T06:04:48;9.95;;;5.00;;
47309;SDS011;33046;52.270;6.832;2023-04-30T06:06:55;6.97;;;3.58;;
47309;SDS011;33046;52.270;6.832;2023-04-30T06:09:01;6.95;;;3.33;;
47309;SDS011;33046;52.270;6.832;2023-04-30T06:11:08;8.30;;;3.75;;
47309;SDS011;33046;52.270;6.832;2023-04-30T06:13:18;5.53;;;3.97;;
47309;SDS011;33046;52.270;6.832;2023-04-30T06:15:24;6.72;;;3.55;;
47309;SDS011;33046;52.270;6.832;2023-04-30T06:17:31;5.22;;;2.45;;
47309;SDS011;33046;52.270;6.832;2023-04-30T06:19:38;6.22;;;2.80;;
47309;SDS011;33046;52.270;6.832;2023-04-30T06:21:45;8.70;;;3.85;;
47309;SDS011;33046;52.270;6.832;2023-04-30T06:23:52;5.35;;;2.35;;
47309;SDS011;33046;52.270;6.832;2023-04-30T06:25:59;4.97;;;2.33;;
47309;SDS011;33046;52.270;6.832;2023-04-30T06:28:05;7.80;;;2.22;;
47309;SDS011;33046;52.270;6.832;2023-04-30T06:30:14;6.65;;;1.80;;
47309;SDS011;33046;52.270;6.832;2023-04-30T06:32:20;5.22;;;2.00;;
47309;SDS011;33046;52.270;6.832;2023-04-30T06:34:27;6.50;;;1.50;;
47309;SDS011;33046;52.270;6.832;2023-04-30T06:36:34;9.95;;;3.22;;
47309;SDS011;33046;52.270;6.832;2023-04-30T06:38:41;5.53;;;1.80;;
47309;SDS011;33046;52.270;6.832;2023-04-30T06:40:47;5.43;;;1.40;;
47309;SDS011;33046;52.270;6.832;2023-04-30T06:42:54;4.35;;;2.10;;
47309;SDS011;33046;52.270;6.832;2023-04-30T06:45:01;8.48;;;2.08;;
47309;SDS011;33046;52.270;6.832;2023-04-30T06:47:10;5.32;;;1.90;;
47309;SDS011;33046;52.270;6.832;2023-04-30T06:49:17;8.57;;;2.33;;
47309;SDS011;33046;52.270;6.832;2023-04-30T06:51:24;6.45;;;1.60;;
47309;SDS011;33046;52.270;6.832;2023-04-30T06:53:30;10.55;;;2.25;;
47309;SDS011;33046;52.270;6.832;2023-04-30T06:55:37;6.47;;;1.65;;
47309;SDS011;33046;52.270;6.832;2023-04-30T06:57:44;9.27;;;2.45;;
47309;SDS011;33046;52.270;6.832;2023-04-30T06:59:51;6.90;;;1.80;;
47309;SDS011;33046;52.270;6.832;2023-04-30T07:01:58;5.32;;;1.70;;
47309;SDS011;33046;52.270;6.832;2023-04-30T07:04:06;3.65;;;1.40;;
47309;SDS011;33046;52.270;6.832;2023-04-30T07:06:13;3.03;;;1.20;;
47309;SDS011;33046;52.270;6.832;2023-04-30T07:08:19;6.10;;;2.25;;
47309;SDS011;33046;52.270;6.832;2023-04-30T07:10:26;4.45;;;1.38;;
47309;SDS011;33046;52.270;6.832;2023-04-30T07:12:33;5.60;;;1.45;;
47309;SDS011;33046;52.270;6.832;2023-04-30T07:14:40;6.43;;;1.85;;
47309;SDS011;33046;52.270;6.832;2023-04-30T07:16:48;5.72;;;1.70;;
47309;SDS011;33046;52.270;6.832;2023-04-30T07:18:55;5.15;;;1.42;;
47309;SDS011;33046;52.270;6.832;2023-04-30T07:21:03;3.28;;;0.90;;
47309;SDS011;33046;52.270;6.832;2023-04-30T07:23:10;5.35;;;1.35;;
47309;SDS011;33046;52.270;6.832;2023-04-30T07:25:17;6.47;;;1.75;;
47309;SDS011;33046;52.270;6.832;2023-04-30T07:27:24;6.57;;;1.15;;
47309;SDS011;33046;52.270;6.832;2023-04-30T07:29:30;5.80;;;1.23;;
47309;SDS011;33046;52.270;6.832;2023-04-30T07:31:37;7.15;;;1.52;;
47309;SDS011;33046;52.270;6.832;2023-04-30T07:33:44;6.65;;;1.00;;
47309;SDS011;33046;52.270;6.832;2023-04-30T07:35:51;6.05;;;1.63;;
47309;SDS011;33046;52.270;6.832;2023-04-30T07:37:59;6.47;;;1.38;;
47309;SDS011;33046;52.270;6.832;2023-04-30T07:40:06;7.28;;;2.17;;
47309;SDS011;33046;52.270;6.832;2023-04-30T07:42:14;4.70;;;1.60;;
47309;SDS011;33046;52.270;6.832;2023-04-30T07:44:20;3.25;;;1.23;;
47309;SDS011;33046;52.270;6.832;2023-04-30T07:46:27;6.85;;;1.73;;
47309;SDS011;33046;52.270;6.832;2023-04-30T07:48:34;8.18;;;1.58;;
47309;SDS011;33046;52.270;6.832;2023-04-30T07:50:41;8.07;;;1.80;;
47309;SDS011;33046;52.270;6.832;2023-04-30T07:52:47;4.68;;;1.67;;
47309;SDS011;33046;52.270;6.832;2023-04-30T07:54:56;5.60;;;1.27;;
47309;SDS011;33046;52.270;6.832;2023-04-30T07:57:03;4.00;;;1.67;;
47309;SDS011;33046;52.270;6.832;2023-04-30T07:59:09;5.93;;;1.45;;
47309;SDS011;33046;52.270;6.832;2023-04-30T08:01:16;8.43;;;1.85;;
47309;SDS011;33046;52.270;6.832;2023-04-30T08:03:23;6.45;;;1.67;;
47309;SDS011;33046;52.270;6.832;2023-04-30T08:05:30;3.50;;;1.30;;
47309;SDS011;33046;52.270;6.832;2023-04-30T08:07:36;5.25;;;1.42;;
47309;SDS011;33046;52.270;6.832;2023-04-30T08:09:43;4.03;;;1.10;;
47309;SDS011;33046;52.270;6.832;2023-04-30T08:11:51;5.47;;;1.20;;
47309;SDS011;33046;52.270;6.832;2023-04-30T08:13:58;2.97;;;1.63;;
47309;SDS011;33046;52.270;6.832;2023-04-30T08:16:05;5.45;;;1.40;;
47309;SDS011;33046;52.270;6.832;2023-04-30T08:18:12;6.63;;;1.33;;
47309;SDS011;33046;52.270;6.832;2023-04-30T08:20:19;4.22;;;1.42;;
47309;SDS011;33046;52.270;6.832;2023-04-30T08:22:26;2.85;;;1.17;;
47309;SDS011;33046;52.270;6.832;2023-04-30T08:24:32;4.63;;;1.30;;
47309;SDS011;33046;52.270;6.832;2023-04-30T08:26:39;5.63;;;1.38;;
47309;SDS011;33046;52.270;6.832;2023-04-30T08:28:47;6.30;;;1.42;;
47309;SDS011;33046;52.270;6.832;2023-04-30T08:30:54;4.60;;;1.40;;
47309;SDS011;33046;52.270;6.832;2023-04-30T08:33:01;6.70;;;2.58;;
47309;SDS011;33046;52.270;6.832;2023-04-30T08:35:08;4.30;;;2.00;;
47309;SDS011;33046;52.270;6.832;2023-04-30T08:37:15;4.70;;;1.50;;
47309;SDS011;33046;52.270;6.832;2023-04-30T08:39:22;6.05;;;1.60;;
47309;SDS011;33046;52.270;6.832;2023-04-30T08:41:30;3.72;;;1.33;;
47309;SDS011;33046;52.270;6.832;2023-04-30T08:43:38;6.45;;;1.83;;
47309;SDS011;33046;52.270;6.832;2023-04-30T08:45:46;4.88;;;1.48;;
47309;SDS011;33046;52.270;6.832;2023-04-30T08:47:56;4.22;;;1.30;;
47309;SDS011;33046;52.270;6.832;2023-04-30T08:50:05;2.85;;;1.30;;
47309;SDS011;33046;52.270;6.832;2023-04-30T08:52:13;5.70;;;1.85;;
47309;SDS011;33046;52.270;6.832;2023-04-30T08:54:19;4.90;;;1.33;;
47309;SDS011;33046;52.270;6.832;2023-04-30T08:56:28;5.13;;;1.73;;
47309;SDS011;33046;52.270;6.832;2023-04-30T08:58:35;3.17;;;1.38;;
47309;SDS011;33046;52.270;6.832;2023-04-30T09:00:42;5.93;;;1.50;;
47309;SDS011;33046;52.270;6.832;2023-04-30T09:02:50;4.78;;;1.90;;
47309;SDS011;33046;52.270;6.832;2023-04-30T09:04:57;3.13;;;1.20;;
47309;SDS011;33046;52.270;6.832;2023-04-30T09:07:04;6.00;;;1.83;;
47309;SDS011;33046;52.270;6.832;2023-04-30T09:09:13;7.60;;;1.77;;
47309;SDS011;33046;52.270;6.832;2023-04-30T09:11:21;5.15;;;2.28;;
47309;SDS011;33046;52.270;6.832;2023-04-30T09:13:39;6.18;;;1.90;;
47309;SDS011;33046;52.270;6.832;2023-04-30T09:15:49;6.25;;;1.60;;
47309;SDS011;33046;52.270;6.832;2023-04-30T09:18:11;6.53;;;2.22;;
47309;SDS011;33046;52.270;6.832;2023-04-30T09:20:19;6.28;;;1.58;;
47309;SDS011;33046;52.270;6.832;2023-04-30T09:22:26;7.75;;;2.17;;
47309;SDS011;33046;52.270;6.832;2023-04-30T09:24:44;6.00;;;1.90;;
47309;SDS011;33046;52.270;6.832;2023-04-30T09:26:52;6.18;;;1.95;;
47309;SDS011;33046;52.270;6.832;2023-04-30T09:28:59;6.03;;;2.17;;
47309;SDS011;33046;52.270;6.832;2023-04-30T09:31:13;4.85;;;1.70;;
47309;SDS011;33046;52.270;6.832;2023-04-30T09:33:26;4.13;;;2.05;;
47309;SDS011;33046;52.270;6.832;2023-04-30T09:35:34;7.00;;;1.92;;
47309;SDS011;33046;52.270;6.832;2023-04-30T09:37:42;3.53;;;1.90;;
47309;SDS011;33046;52.270;6.832;2023-04-30T09:39:49;5.85;;;2.72;;
47309;SDS011;33046;52.270;6.832;2023-04-30T09:42:05;4.57;;;1.65;;
47309;SDS011;33046;52.270;6.832;2023-04-30T09:44:25;5.13;;;2.00;;
47309;SDS011;33046;52.270;6.832;2023-04-30T09:46:33;3.95;;;1.70;;
47309;SDS011;33046;52.270;6.832;2023-04-30T09:48:41;5.32;;;1.95;;
47309;SDS011;33046;52.270;6.832;2023-04-30T09:50:50;6.05;;;2.05;;
47309;SDS011;33046;52.270;6.832;2023-04-30T09:53:04;6.50;;;2.45;;
47309;SDS011;33046;52.270;6.832;2023-04-30T09:55:11;4.82;;;1.90;;
47309;SDS011;33046;52.270;6.832;2023-04-30T09:57:18;5.25;;;1.88;;
47309;SDS011;33046;52.270;6.832;2023-04-30T09:59:29;6.10;;;2.20;;
47309;SDS011;33046;52.270;6.832;2023-04-30T10:01:36;4.63;;;1.80;;
47309;SDS011;33046;52.270;6.832;2023-04-30T10:03:47;4.38;;;2.08;;
47309;SDS011;33046;52.270;6.832;2023-04-30T10:05:54;6.00;;;2.00;;
47309;SDS011;33046;52.270;6.832;2023-04-30T10:08:01;3.08;;;1.33;;
47309;SDS011;33046;52.270;6.832;2023-04-30T10:10:10;6.75;;;2.25;;
47309;SDS011;33046;52.270;6.832;2023-04-30T10:12:19;5.40;;;2.67;;
47309;SDS011;33046;52.270;6.832;2023-04-30T10:14:29;5.65;;;1.83;;
47309;SDS011;33046;52.270;6.832;2023-04-30T10:16:38;5.35;;;2.63;;
47309;SDS011;33046;52.270;6.832;2023-04-30T10:18:50;3.28;;;1.65;;
47309;SDS011;33046;52.270;6.832;2023-04-30T10:21:00;2.95;;;1.63;;
47309;SDS011;33046;52.270;6.832;2023-04-30T10:23:10;5.53;;;1.67;;
47309;SDS011;33046;52.270;6.832;2023-04-30T10:25:17;8.93;;;2.47;;
47309;SDS011;33046;52.270;6.832;2023-04-30T10:27:24;7.35;;;1.48;;
47309;SDS011;33046;52.270;6.832;2023-04-30T10:29:31;4.70;;;1.88;;
47309;SDS011;33046;52.270;6.832;2023-04-30T10:31:38;5.88;;;1.92;;
47309;SDS011;33046;52.270;6.832;2023-04-30T10:33:49;3.15;;;1.75;;
47309;SDS011;33046;52.270;6.832;2023-04-30T10:36:05;4.63;;;1.77;;
47309;SDS011;33046;52.270;6.832;2023-04-30T10:38:20;3.63;;;1.38;;
47309;SDS011;33046;52.270;6.832;2023-04-30T10:40:28;3.47;;;1.30;;
47309;SDS011;33046;52.270;6.832;2023-04-30T10:42:44;4.67;;;1.70;;
47309;SDS011;33046;52.270;6.832;2023-04-30T10:44:51;3.78;;;2.17;;
47309;SDS011;33046;52.270;6.832;2023-04-30T10:46:58;5.70;;;1.92;;
47309;SDS011;33046;52.270;6.832;2023-04-30T10:49:06;3.25;;;1.70;;
47309;SDS011;33046;52.270;6.832;2023-04-30T10:51:13;6.32;;;1.60;;
47309;SDS011;33046;52.270;6.832;2023-04-30T10:53:20;6.25;;;1.40;;
47309;SDS011;33046;52.270;6.832;2023-04-30T10:55:27;3.35;;;1.90;;
47309;SDS011;33046;52.270;6.832;2023-04-30T10:57:41;3.85;;;1.60;;
47309;SDS011;33046;52.270;6.832;2023-04-30T10:59:52;5.05;;;1.73;;
47309;SDS011;33046;52.270;6.832;2023-04-30T11:02:19;3.75;;;1.98;;
47309;SDS011;33046;52.270;6.832;2023-04-30T11:04:27;2.05;;;1.27;;
47309;SDS011;33046;52.270;6.832;2023-04-30T11:09:02;5.03;;;2.00;;
47309;SDS011;33046;52.270;6.832;2023-04-30T11:11:09;4.60;;;1.67;;
47309;SDS011;33046;52.270;6.832;2023-04-30T11:13:17;5.00;;;1.70;;
47309;SDS011;33046;52.270;6.832;2023-04-30T11:15:25;4.82;;;1.45;;
47309;SDS011;33046;52.270;6.832;2023-04-30T11:17:36;3.17;;;1.30;;
47309;SDS011;33046;52.270;6.832;2023-04-30T11:19:48;2.35;;;1.00;;
47309;SDS011;33046;52.270;6.832;2023-04-30T11:22:14;3.70;;;1.02;;
47309;SDS011;33046;52.270;6.832;2023-04-30T11:24:22;3.17;;;1.40;;
47309;SDS011;33046;52.270;6.832;2023-04-30T11:27:03;3.30;;;1.70;;
47309;SDS011;33046;52.270;6.832;2023-04-30T11:29:10;6.32;;;2.25;;
47309;SDS011;33046;52.270;6.832;2023-04-30T11:31:17;5.35;;;1.50;;
47309;SDS011;33046;52.270;6.832;2023-04-30T11:33:25;4.00;;;1.33;;
47309;SDS011;33046;52.270;6.832;2023-04-30T11:35:35;2.63;;;1.15;;
47309;SDS011;33046;52.270;6.832;2023-04-30T11:37:43;3.42;;;1.23;;
47309;SDS011;33046;52.270;6.832;2023-04-30T11:39:50;4.55;;;1.33;;
47309;SDS011;33046;52.270;6.832;2023-04-30T11:41:57;3.08;;;1.13;;
47309;SDS011;33046;52.270;6.832;2023-04-30T11:44:20;3.78;;;1.42;;
47309;SDS011;33046;52.270;6.832;2023-04-30T11:46:28;5.60;;;1.55;;
47309;SDS011;33046;52.270;6.832;2023-04-30T11:48:35;5.13;;;1.60;;
47309;SDS011;33046;52.270;6.832;2023-04-30T11:50:44;4.47;;;1.17;;
47309;SDS011;33046;52.270;6.832;2023-04-30T11:52:51;4.57;;;1.27;;
47309;SDS011;33046;52.270;6.832;2023-04-30T11:54:58;6.53;;;1.48;;
47309;SDS011;33046;52.270;6.832;2023-04-30T11:57:05;2.17;;;0.95;;
47309;SDS011;33046;52.270;6.832;2023-04-30T11:59:12;3.10;;;1.33;;
47309;SDS011;33046;52.270;6.832;2023-04-30T12:01:19;3.90;;;0.93;;
47309;SDS011;33046;52.270;6.832;2023-04-30T12:03:26;1.90;;;1.10;;
47309;SDS011;33046;52.270;6.832;2023-04-30T12:05:33;4.68;;;1.00;;
47309;SDS011;33046;52.270;6.832;2023-04-30T12:07:44;3.30;;;1.25;;
47309;SDS011;33046;52.270;6.832;2023-04-30T12:09:53;3.25;;;1.33;;
47309;SDS011;33046;52.270;6.832;2023-04-30T12:12:00;2.80;;;0.90;;
47309;SDS011;33046;52.270;6.832;2023-04-30T12:14:07;8.65;;;1.50;;
47309;SDS011;33046;52.270;6.832;2023-04-30T12:16:15;3.70;;;1.13;;
47309;SDS011;33046;52.270;6.832;2023-04-30T12:18:22;8.35;;;1.65;;
47309;SDS011;33046;52.270;6.832;2023-04-30T12:20:30;5.10;;;1.58;;
47309;SDS011;33046;52.270;6.832;2023-04-30T12:22:37;2.75;;;0.80;;
47309;SDS011;33046;52.270;6.832;2023-04-30T12:24:46;2.10;;;0.98;;
47309;SDS011;33046;52.270;6.832;2023-04-30T12:26:54;2.42;;;0.90;;
47309;SDS011;33046;52.270;6.832;2023-04-30T12:29:01;2.03;;;1.10;;
47309;SDS011;33046;52.270;6.832;2023-04-30T12:31:09;1.65;;;0.70;;
47309;SDS011;33046;52.270;6.832;2023-04-30T12:33:16;4.38;;;0.82;;
47309;SDS011;33046;52.270;6.832;2023-04-30T12:35:23;1.52;;;0.70;;
47309;SDS011;33046;52.270;6.832;2023-04-30T12:37:33;1.35;;;0.57;;
47309;SDS011;33046;52.270;6.832;2023-04-30T12:39:40;2.15;;;0.70;;
47309;SDS011;33046;52.270;6.832;2023-04-30T12:41:48;2.05;;;0.60;;
47309;SDS011;33046;52.270;6.832;2023-04-30T12:46:26;2.58;;;0.80;;
47309;SDS011;33046;52.270;6.832;2023-04-30T12:48:42;2.22;;;0.82;;
47309;SDS011;33046;52.270;6.832;2023-04-30T12:50:52;2.83;;;0.90;;
47309;SDS011;33046;52.270;6.832;2023-04-30T12:53:00;1.95;;;0.68;;
47309;SDS011;33046;52.270;6.832;2023-04-30T12:55:14;5.65;;;1.13;;
47309;SDS011;33046;52.270;6.832;2023-04-30T12:57:23;3.38;;;1.20;;
47309;SDS011;33046;52.270;6.832;2023-04-30T12:59:31;3.30;;;1.08;;